• Join FlightAware (Why Join?)
  • Login
  • US Flag 
08:40AM EDT


 

Airport Tracker/Info


-or-


 

Live Flight TrackerFlight Track Log ✈ AWE12 ✈ 06-May-2012 ✈ KSAN - KPHX

Flight Track Log - Related Links

Times and Time Zones

All times are in EDT time to prevent confusion due to time zone crossing. See the AWE12 flight status page for this flight to view local times or setup timezone preferences in your user account.

Time Position Orientation Groundspeed Altitude Reporting Facility
EDT Latitude Longitude Course Direction KTS MPH feet Rate Location/Type
10:24AM 32.7411 -117.1128 276° West  Level FlightAware Approximate
10:24AM 32.7500 -117.2167 131° Southeast 174 200 1,600  Level Southern California TRACON
10:29AM 32.6211 -117.0433 93° East 263 303 13,000 2,220 Climbing Los Angeles Center
10:30AM 32.6158 -116.9175 83° East 338 389 15,300 2,100 Climbing Los Angeles Center
10:32AM 32.6444 -116.6417 85° East 403 464 19,400 2,040 Climbing Los Angeles Center
10:33AM 32.6553 -116.4936 83° East 426 490 21,500 2,160 Climbing Los Angeles Center
10:34AM 32.6703 -116.3506 83° East 438 504 23,800 1,740 Climbing Los Angeles Center
10:35AM 32.6850 -116.2025 84° East 445 512 25,000 600 Climbing Los Angeles Center
10:36AM 32.6978 -116.0519 84° East 450 518 25,000  Level Los Angeles Center
10:37AM 32.7142 -115.8792 84° East 468 539 25,000  Level Los Angeles Center
10:38AM 32.7283 -115.7236 84° East 468 539 25,000  Level Los Angeles Center
10:39AM 32.7425 -115.5731 87° East 463 533 25,000  Level Los Angeles Center
10:40AM 32.7500 -115.4247 88° East 458 527 25,000  Level Los Angeles Center
10:41AM 32.7533 -115.2767 89° East 453 521 25,000  Level Los Angeles Center
10:42AM 32.7561 -115.1258 89° East 453 521 25,000  Level Los Angeles Center
10:43AM 32.7592 -114.9778 90° East 453 521 25,000  Level Los Angeles Center
10:44AM 32.7597 -114.8319 87° East 448 516 25,000  Level Los Angeles Center
10:45AM 32.7664 -114.6836 91° East 443 510 25,000  Level Los Angeles Center
10:46AM 32.7647 -114.5381 87° East 438 504 25,000  Level Los Angeles Center
10:48AM 32.7731 -114.3650 89° East 447 514 25,000  Level Albuquerque Center
10:49AM 32.7747 -114.2178 89° East 447 514 25,000  Level Albuquerque Center
10:50AM 32.7769 -114.0414 85° East 446 513 25,000 -60 Level Albuquerque Center
10:51AM 32.7886 -113.8922 81° East 458 527 24,900 -300 Descending Albuquerque Center
10:52AM 32.8092 -113.7447 60° Northeast 454 522 24,400 -600 Descending Albuquerque Center
10:53AM 32.8697 -113.6189 49° Northeast 448 516 23,700 -1,020 Descending Albuquerque Center
10:54AM 32.9500 -113.5097 49° Northeast 437 503 22,400 -1,440 Descending Albuquerque Center
10:55AM 33.0297 -113.4014 49° Northeast 434 499 20,800 -2,040 Descending Albuquerque Center
10:56AM 33.1050 -113.2992 49° Northeast 414 476 18,300 -2,040 Descending Albuquerque Center
10:57AM 33.1919 -113.1811 49° Northeast 393 452 16,600 -1,500 Descending Albuquerque Center
10:58AM 33.2597 -113.0881 79° East 379 436 15,200 -1,380 Descending Albuquerque Center
10:59AM 33.2769 -112.9792 88° East 348 400 13,800 -1,380 Descending Albuquerque Center
11:00AM 33.2797 -112.8658 76° East 340 391 12,400 -1,380 Descending Albuquerque Center
11:01AM 33.2992 -112.7694 65° Northeast 304 350 11,000 -1,260 Descending Albuquerque Center
11:02AM 33.3342 -112.6792 66° East 296 341 9,900 -1,200 Descending Albuquerque Center
11:03AM 33.3675 -112.5883 65° Northeast 269 310 8,600 -960 Descending Albuquerque Center
11:04AM 33.3978 -112.5108 67° East 253 291 8,000 -600 Descending Albuquerque Center
11:05AM 33.4264 -112.4317 89° East 255 293 7,400 -720 Descending Albuquerque Center
11:06AM 33.4278 -112.3583 85° East 223 257 6,500 -1,140 Descending Albuquerque Center
11:07AM 33.4333 -112.2833 90° East 208 239 5,100 -1,200 Descending Phoenix TRACON
11:08AM 33.4333 -112.2167 90° East 192 221 4,100 -1,020 Descending Phoenix TRACON
11:10AM 33.4333 -112.1000 90° East 154 177 2,200 -900 Descending Phoenix TRACON
11:11AM 33.4333 -112.0500 90° East 143 165 1,500 -780 Descending Phoenix TRACON